createdAt,value
2022-11-17T00:01:10.867Z,47.00
2022-11-17T00:03:40.325Z,50.00
2022-11-17T00:06:09.790Z,51.67
2022-11-17T00:08:38.429Z,51.00
2022-11-17T00:11:07.959Z,49.75
2022-11-17T00:13:56.032Z,49.67
2022-11-17T00:16:25.559Z,49.33
2022-11-17T00:19:13.572Z,51.33
2022-11-17T00:21:43.109Z,46.33
2022-11-17T00:24:17.274Z,50.00
2022-11-17T00:27:01.826Z,48.00
2022-11-17T00:29:32.136Z,50.67
2022-11-17T00:32:20.018Z,51.00
2022-11-17T00:34:49.500Z,49.00
2022-11-17T00:37:18.939Z,49.33
2022-11-17T00:39:47.527Z,48.67
2022-11-17T00:42:17.027Z,49.00
2022-11-17T00:44:46.572Z,49.00
2022-11-17T00:47:16.030Z,48.33
2022-11-17T00:49:45.476Z,50.67
2022-11-17T00:52:14.883Z,51.67
2022-11-17T00:54:44.477Z,50.00
2022-11-17T00:57:13.969Z,49.67
2022-11-17T00:59:43.395Z,49.33
2022-11-17T01:02:12.861Z,50.33
2022-11-17T01:04:42.299Z,49.33
2022-11-17T01:07:11.912Z,49.33
2022-11-17T01:09:41.369Z,49.67
2022-11-17T01:12:10.833Z,48.67
2022-11-17T01:14:40.351Z,45.33
2022-11-17T01:17:09.853Z,48.00
2022-11-17T01:19:39.419Z,49.67
2022-11-17T01:22:08.889Z,49.33
2022-11-17T01:24:38.346Z,49.00
2022-11-17T01:27:08.320Z,46.33
2022-11-17T01:29:36.904Z,50.00
2022-11-17T01:32:06.360Z,49.00
2022-11-17T01:34:35.847Z,47.67
2022-11-17T01:37:20.430Z,50.00
2022-11-17T01:39:50.956Z,50.33
2022-11-17T01:42:27.616Z,48.33
2022-11-17T01:45:19.595Z,51.33
2022-11-17T01:47:57.798Z,50.00
2022-11-17T01:50:31.155Z,50.33
2022-11-17T01:53:07.105Z,51.00
2022-11-17T01:56:00.076Z,51.00
2022-11-17T01:58:39.828Z,49.00
2022-11-17T02:01:09.389Z,50.33
2022-11-17T02:03:40.636Z,48.00
2022-11-17T02:06:30.045Z,48.00
2022-11-17T02:09:03.098Z,47.67
2022-11-17T02:11:36.259Z,42.00
2022-11-17T02:14:06.160Z,42.67
2022-11-17T02:16:35.590Z,46.00
2022-11-17T02:19:05.507Z,46.00
2022-11-17T02:22:21.292Z,46.67
2022-11-17T02:25:36.146Z,41.00
2022-11-17T02:28:37.741Z,43.33
2022-11-17T02:31:37.884Z,43.67
2022-11-17T02:34:30.121Z,43.00
2022-11-17T02:37:10.386Z,40.00
2022-11-17T02:39:54.496Z,43.00
2022-11-17T02:43:10.402Z,43.00
2022-11-17T02:46:01.171Z,43.00
2022-11-17T02:48:59.819Z,41.00
2022-11-17T02:51:29.531Z,43.00
2022-11-17T02:54:00.261Z,42.33
2022-11-17T02:56:29.645Z,42.67
2022-11-17T02:59:03.258Z,42.33
2022-11-17T03:01:53.097Z,44.00
2022-11-17T03:04:40.506Z,38.50
2022-11-17T03:08:06.065Z,37.00
2022-11-17T03:11:08.563Z,39.00
2022-11-17T03:13:59.251Z,39.00
2022-11-17T03:16:38.863Z,43.00
2022-11-17T03:19:18.984Z,37.00
2022-11-17T03:21:56.818Z,42.00
2022-11-17T03:24:46.184Z,39.50
2022-11-17T03:27:35.865Z,42.67
2022-11-17T03:30:09.576Z,43.33
2022-11-17T03:32:44.306Z,43.33
2022-11-17T03:35:21.167Z,43.33
2022-11-17T03:38:01.593Z,43.00
2022-11-17T03:40:35.514Z,46.00
2022-11-17T03:43:08.819Z,45.33
2022-11-17T03:45:51.530Z,39.00
2022-11-17T03:48:45.100Z,36.33
2022-11-17T03:51:24.462Z,42.67
2022-11-17T03:53:55.264Z,44.00
2022-11-17T03:57:23.727Z,46.00
2022-11-17T04:00:00.684Z,43.00
2022-11-17T04:02:30.228Z,43.67
2022-11-17T04:05:08.724Z,46.00
2022-11-17T04:07:47.587Z,43.00
2022-11-17T04:10:25.858Z,45.33
2022-11-17T04:13:13.900Z,42.00
2022-11-17T04:15:59.078Z,42.33
2022-11-17T04:18:28.697Z,44.67
2022-11-17T04:20:58.432Z,43.67
2022-11-17T04:23:28.309Z,43.33
2022-11-17T04:26:16.815Z,46.00
2022-11-17T04:28:50.468Z,53.00
2022-11-17T04:31:25.441Z,65.50
2022-11-17T04:34:04.453Z,67.75
2022-11-17T04:36:45.757Z,55.75
2022-11-17T04:39:16.783Z,53.33
2022-11-17T04:41:57.362Z,55.00
2022-11-17T04:44:31.190Z,51.75
2022-11-17T04:47:03.394Z,52.67
2022-11-17T04:49:33.541Z,57.33
2022-11-17T04:52:03.445Z,57.67
2022-11-17T04:54:33.083Z,53.25
2022-11-17T04:57:02.947Z,50.33
2022-11-17T04:59:32.241Z,49.00
2022-11-17T05:02:05.941Z,46.00
2022-11-17T05:04:54.461Z,51.67
2022-11-17T05:07:24.487Z,45.33
2022-11-17T05:09:53.980Z,49.67
2022-11-17T05:12:41.943Z,50.33
2022-11-17T05:15:11.518Z,54.33
2022-11-17T05:17:40.135Z,51.33
2022-11-17T05:20:10.591Z,52.67
2022-11-17T05:23:02.490Z,50.67
2022-11-17T05:25:34.914Z,48.00
2022-11-17T05:28:04.451Z,50.00
2022-11-17T05:30:33.857Z,43.67
2022-11-17T05:33:03.360Z,53.33
2022-11-17T05:35:32.892Z,52.00
2022-11-17T05:38:02.359Z,51.00
2022-11-17T05:40:31.879Z,50.33
2022-11-17T05:43:01.331Z,51.00
2022-11-17T05:45:30.828Z,53.00
2022-11-17T05:48:00.381Z,52.33
2022-11-17T05:50:29.833Z,52.67
2022-11-17T05:52:59.364Z,52.00
2022-11-17T05:55:28.909Z,49.67
2022-11-17T05:58:27.548Z,49.00
2022-11-17T06:00:59.082Z,50.67
2022-11-17T06:03:38.261Z,49.33
2022-11-17T06:06:09.714Z,51.33
2022-11-17T06:08:39.368Z,49.00
2022-11-17T06:11:09.067Z,53.00
2022-11-17T06:13:38.784Z,47.67
2022-11-17T06:16:12.229Z,50.00
2022-11-17T06:18:51.744Z,55.00
2022-11-17T06:21:20.443Z,56.67
2022-11-17T06:23:51.207Z,57.33
2022-11-17T06:26:20.288Z,55.67
2022-11-17T06:28:51.969Z,56.00
2022-11-17T06:31:20.803Z,53.33
2022-11-17T06:33:50.367Z,53.67
2022-11-17T06:36:20.182Z,57.33
2022-11-17T06:38:49.029Z,57.67
2022-11-17T06:41:18.497Z,59.00
2022-11-17T06:43:48.023Z,59.00
2022-11-17T06:46:17.644Z,58.33
2022-11-17T06:48:47.241Z,59.67
2022-11-17T06:51:16.815Z,58.00
2022-11-17T06:53:46.371Z,54.00
2022-11-17T06:56:17.694Z,57.00
2022-11-17T06:58:47.179Z,54.00
2022-11-17T07:01:16.823Z,56.00
2022-11-17T07:03:46.186Z,55.50
2022-11-17T07:06:16.415Z,52.00
2022-11-17T07:08:46.361Z,52.00
2022-11-17T07:11:17.300Z,49.00
2022-11-17T07:13:47.284Z,52.00
2022-11-17T07:16:23.762Z,46.33
2022-11-17T07:18:53.924Z,47.33
2022-11-17T07:21:23.411Z,48.00
2022-11-17T07:23:52.923Z,45.00
2022-11-17T07:26:22.428Z,48.00
2022-11-17T07:28:51.941Z,44.00
2022-11-17T07:31:22.109Z,49.67
2022-11-17T07:33:53.870Z,42.00
2022-11-17T07:36:23.380Z,46.00
2022-11-17T07:38:52.967Z,45.67
2022-11-17T07:41:22.525Z,49.00
2022-11-17T07:43:52.039Z,46.33
2022-11-17T07:46:21.561Z,46.67
2022-11-17T07:48:55.228Z,45.67
2022-11-17T07:51:25.109Z,47.00
2022-11-17T07:53:54.902Z,43.67
2022-11-17T07:56:24.354Z,45.50
2022-11-17T07:58:54.984Z,43.00
2022-11-17T08:01:27.620Z,44.67
2022-11-17T08:03:58.118Z,43.33
2022-11-17T08:06:27.653Z,43.00
2022-11-17T08:08:57.159Z,44.00
2022-11-17T08:11:26.654Z,48.00
2022-11-17T08:13:57.242Z,46.00
2022-11-17T08:16:30.849Z,37.00
2022-11-17T08:19:00.543Z,43.33
2022-11-17T08:21:30.341Z,44.67
2022-11-17T08:24:00.391Z,40.67
2022-11-17T08:26:29.998Z,42.33
2022-11-17T08:29:01.877Z,43.00
2022-11-17T08:31:30.821Z,43.00
2022-11-17T08:34:00.401Z,47.67
2022-11-17T08:36:29.948Z,44.33
2022-11-17T08:38:59.542Z,45.00
2022-11-17T08:41:29.129Z,43.33
2022-11-17T08:43:58.765Z,44.00
2022-11-17T08:46:28.233Z,44.00
2022-11-17T08:48:57.767Z,45.00
2022-11-17T08:51:27.342Z,41.00
2022-11-17T08:53:59.097Z,45.00
2022-11-17T08:56:28.585Z,41.00
2022-11-17T08:58:57.333Z,52.00
2022-11-17T09:01:27.433Z,40.33
2022-11-17T09:03:56.297Z,39.00
2022-11-17T09:06:25.744Z,38.67
2022-11-17T09:08:56.571Z,30.00
2022-11-17T09:11:26.225Z,41.00
2022-11-17T09:13:55.664Z,43.33
2022-11-17T09:16:25.610Z,42.00
2022-11-17T09:18:58.591Z,40.33
2022-11-17T09:21:27.665Z,42.00
2022-11-17T09:23:56.411Z,39.50
2022-11-17T09:26:27.328Z,40.00
2022-11-17T09:29:00.462Z,41.00
2022-11-17T09:31:30.868Z,40.33
2022-11-17T09:34:04.808Z,41.00
2022-11-17T09:36:35.169Z,40.00
2022-11-17T09:39:04.541Z,40.00
2022-11-17T09:41:46.469Z,41.00
2022-11-17T09:44:39.718Z,38.33
2022-11-17T09:47:36.055Z,39.00
2022-11-17T09:50:32.659Z,39.33
2022-11-17T09:53:30.310Z,35.67
2022-11-17T09:56:08.610Z,37.00
2022-11-17T09:59:06.700Z,35.00
2022-11-17T10:01:35.394Z,37.00
2022-11-17T10:04:09.544Z,31.00
2022-11-17T10:06:38.922Z,34.50
2022-11-17T10:09:36.231Z,33.67
2022-11-17T10:12:27.105Z,32.33
2022-11-17T10:14:56.369Z,34.00
2022-11-17T10:17:25.777Z,28.33
2022-11-17T10:19:54.516Z,34.33
2022-11-17T10:22:45.028Z,32.00
2022-11-17T10:25:49.065Z,32.00
2022-11-17T10:28:44.122Z,31.00
2022-11-17T10:31:20.344Z,32.00
2022-11-17T10:33:51.579Z,33.00
2022-11-17T10:36:29.708Z,31.00
2022-11-17T10:39:00.695Z,30.00
2022-11-17T10:41:45.512Z,30.67
2022-11-17T10:44:28.277Z,31.33
2022-11-17T10:47:04.383Z,26.00
2022-11-17T10:49:38.147Z,27.67
2022-11-17T10:52:18.570Z,30.33
2022-11-17T10:54:47.816Z,30.67
2022-11-17T10:57:26.789Z,29.67
2022-11-17T10:59:57.942Z,26.00
2022-11-17T11:02:30.796Z,24.00
2022-11-17T11:05:18.730Z,26.00
2022-11-17T11:07:48.476Z,37.00
2022-11-17T11:10:43.840Z,21.67
2022-11-17T11:13:24.982Z,27.00
2022-11-17T11:15:53.761Z,33.00
2022-11-17T11:18:23.342Z,27.33
2022-11-17T11:21:07.343Z,27.67
2022-11-17T11:23:51.242Z,20.50
2022-11-17T11:27:11.217Z,20.00
2022-11-17T11:30:06.202Z,22.00
2022-11-17T11:33:36.044Z,23.00
2022-11-17T11:36:24.396Z,23.00
2022-11-17T11:39:20.512Z,23.33
2022-11-17T11:42:37.206Z,18.50
2022-11-17T11:45:42.808Z,22.00
2022-11-17T11:48:28.263Z,25.00
2022-11-17T11:51:23.261Z,23.33
2022-11-17T11:54:16.389Z,18.00
2022-11-17T11:56:48.842Z,17.00
2022-11-17T11:59:49.395Z,21.00
2022-11-17T12:02:48.856Z,20.50
2022-11-17T12:06:27.583Z,20.00
2022-11-17T12:09:40.591Z,22.00
2022-11-17T12:12:22.745Z,26.67
2022-11-17T12:15:18.441Z,24.67
2022-11-17T12:18:02.713Z,20.33
2022-11-17T12:20:47.923Z,16.00
2022-11-17T12:24:18.397Z,20.50
2022-11-17T12:26:47.054Z,22.00
2022-11-17T12:29:21.336Z,139.00
2022-11-17T12:32:02.086Z,26.00
2022-11-17T12:34:34.026Z,26.50
2022-11-17T12:37:26.656Z,27.50
2022-11-17T12:40:08.063Z,28.67
2022-11-17T12:42:38.335Z,25.00
2022-11-17T12:45:14.136Z,25.50
2022-11-17T12:47:54.822Z,19.50
2022-11-17T12:51:15.907Z,41.00
2022-11-17T12:54:24.399Z,32.00
2022-11-17T12:57:06.718Z,21.00
2022-11-17T13:00:05.606Z,34.67
2022-11-17T13:03:03.102Z,34.00
2022-11-17T13:05:31.890Z,30.67
2022-11-17T13:08:21.707Z,29.67
2022-11-17T13:10:51.781Z,31.00
2022-11-17T13:13:25.340Z,25.00
2022-11-17T13:16:02.349Z,29.00
2022-11-17T13:18:36.770Z,24.00
2022-11-17T13:21:25.188Z,24.50
2022-11-17T13:23:54.466Z,28.33
2022-11-17T13:26:26.679Z,25.67
2022-11-17T13:29:18.839Z,30.33
2022-11-17T13:31:47.542Z,22.33
2022-11-17T13:34:21.477Z,29.33
2022-11-17T13:37:01.369Z,31.00
2022-11-17T13:39:31.064Z,25.33
2022-11-17T13:42:03.336Z,34.00
2022-11-17T13:44:33.584Z,30.50
2022-11-17T13:47:38.074Z,22.33
2022-11-17T13:50:29.443Z,31.00
2022-11-17T13:53:26.896Z,24.67
2022-11-17T13:55:55.925Z,35.00
2022-11-17T13:58:37.488Z,33.00
2022-11-17T14:01:06.416Z,32.00
2022-11-17T14:03:43.944Z,33.50
2022-11-17T14:06:14.792Z,35.00
2022-11-17T14:09:04.713Z,31.00
2022-11-17T14:11:33.457Z,24.50
2022-11-17T14:14:02.206Z,24.00
2022-11-17T14:16:41.478Z,21.50
2022-11-17T14:19:16.198Z,26.50
2022-11-17T14:22:31.033Z,30.00
2022-11-17T14:25:00.526Z,37.33
2022-11-17T14:27:29.959Z,39.33
2022-11-17T14:29:58.699Z,57.67
2022-11-17T14:32:29.093Z,70.50
2022-11-17T14:34:59.083Z,55.33
2022-11-17T14:37:29.090Z,35.00
2022-11-17T14:40:00.820Z,34.67
2022-11-17T14:42:34.766Z,31.67
2022-11-17T14:45:05.573Z,26.33
2022-11-17T14:47:35.901Z,31.33
2022-11-17T14:50:05.112Z,31.00
2022-11-17T14:52:34.594Z,40.67
2022-11-17T14:55:04.782Z,53.00
2022-11-17T14:57:34.401Z,56.00
2022-11-17T15:00:08.604Z,47.00
2022-11-17T15:02:38.162Z,57.67
2022-11-17T15:05:07.475Z,56.33
2022-11-17T15:07:36.417Z,54.33
2022-11-17T15:10:08.010Z,56.00
2022-11-17T15:12:36.953Z,52.33
2022-11-17T15:15:08.789Z,57.00
2022-11-17T15:17:38.520Z,53.33
2022-11-17T15:20:09.815Z,52.33
2022-11-17T15:22:38.416Z,33.67
2022-11-17T15:25:09.017Z,47.67
2022-11-17T15:27:38.609Z,54.00
2022-11-17T15:30:09.231Z,53.33
2022-11-17T15:32:38.657Z,44.33
2022-11-17T15:35:08.738Z,54.50
2022-11-17T15:37:38.240Z,74.00
2022-11-17T15:40:08.124Z,65.00
2022-11-17T15:42:36.817Z,56.67
2022-11-17T15:45:06.117Z,56.00
2022-11-17T15:47:35.576Z,56.00
2022-11-17T15:50:05.760Z,51.00
2022-11-17T15:53:02.085Z,53.00
2022-11-17T15:55:23.967Z,50.33
2022-11-17T15:57:55.181Z,79.00
2022-11-17T16:00:24.695Z,79.50
2022-11-17T16:02:57.327Z,65.00
2022-11-17T16:05:26.709Z,82.50
2022-11-17T16:07:56.295Z,61.50
2022-11-17T16:10:27.512Z,69.67
2022-11-17T16:12:57.611Z,66.00
2022-11-17T16:15:27.340Z,82.33
2022-11-17T16:17:56.917Z,92.33
2022-11-17T16:20:26.659Z,71.00
2022-11-17T16:22:58.887Z,95.00
2022-11-17T16:25:28.511Z,123.67
2022-11-17T16:27:56.400Z,98.50
2022-11-17T16:30:32.743Z,88.00
2022-11-17T16:33:08.820Z,117.50
2022-11-17T16:35:40.605Z,86.00
2022-11-17T16:38:17.200Z,139.33
2022-11-17T16:40:46.758Z,88.75
2022-11-17T16:43:16.414Z,82.67
2022-11-17T16:45:46.720Z,67.67
2022-11-17T16:48:15.522Z,63.67
2022-11-17T16:50:45.193Z,86.67
2022-11-17T16:53:14.287Z,129.50
2022-11-17T16:55:43.964Z,114.67
2022-11-17T16:58:14.580Z,85.67
2022-11-17T17:00:44.177Z,87.00
2022-11-17T17:03:13.830Z,84.33
2022-11-17T17:05:43.416Z,81.50
2022-11-17T17:08:13.024Z,86.00
2022-11-17T17:10:42.980Z,84.67
2022-11-17T17:13:10.795Z,113.50
2022-11-17T17:15:38.608Z,113.50
2022-11-17T17:18:09.553Z,105.00
2022-11-17T17:20:39.125Z,91.00
2022-11-17T17:23:09.521Z,90.25
2022-11-17T17:25:39.154Z,86.67
2022-11-17T17:28:08.819Z,77.00
2022-11-17T17:30:38.428Z,79.00
2022-11-17T17:33:07.977Z,88.50
2022-11-17T17:35:35.778Z,75.50
2022-11-17T17:38:05.221Z,59.25
2022-11-17T17:40:34.888Z,54.00
2022-11-17T17:43:04.401Z,56.00
2022-11-17T17:45:33.075Z,48.00
2022-11-17T17:48:02.558Z,48.33
2022-11-17T17:50:32.811Z,47.33
2022-11-17T17:53:02.329Z,48.67
2022-11-17T17:55:32.602Z,49.67
2022-11-17T17:58:02.079Z,49.67
2022-11-17T18:00:31.573Z,48.00
2022-11-17T18:03:01.572Z,44.00
2022-11-17T18:05:32.443Z,45.33
2022-11-17T18:08:01.942Z,47.00
2022-11-17T18:10:31.411Z,49.25
2022-11-17T18:13:00.907Z,49.00
2022-11-17T18:15:30.640Z,50.00
2022-11-17T18:17:59.403Z,49.00
2022-11-17T18:20:29.161Z,51.67
2022-11-17T18:22:59.883Z,52.25
2022-11-17T18:25:29.402Z,51.33
2022-11-17T18:27:59.065Z,47.00
2022-11-17T18:30:28.568Z,50.33
2022-11-17T18:33:02.792Z,51.67
2022-11-17T18:35:32.720Z,50.33
2022-11-17T18:38:02.281Z,52.67
2022-11-17T18:40:31.379Z,53.00
2022-11-17T18:43:01.805Z,54.00
2022-11-17T18:45:30.390Z,56.33
2022-11-17T18:47:59.996Z,66.00
2022-11-17T18:50:28.904Z,55.00
2022-11-17T18:52:58.772Z,51.00
2022-11-17T18:55:28.330Z,50.33
2022-11-17T18:57:58.070Z,48.33
2022-11-17T19:00:27.492Z,46.00
2022-11-17T19:02:57.008Z,49.67
2022-11-17T19:05:26.517Z,49.00
2022-11-17T19:07:57.416Z,51.33
2022-11-17T19:10:27.036Z,50.67
2022-11-17T19:12:55.652Z,47.67
2022-11-17T19:15:24.323Z,48.67
2022-11-17T19:17:53.881Z,49.00
2022-11-17T19:20:25.145Z,48.33
2022-11-17T19:22:55.270Z,46.00
2022-11-17T19:25:24.703Z,46.33
2022-11-17T19:27:54.326Z,45.67
2022-11-17T19:30:23.072Z,50.33
2022-11-17T19:32:52.606Z,50.33
2022-11-17T19:35:22.929Z,53.00
2022-11-17T19:37:52.612Z,53.00
2022-11-17T19:40:22.169Z,53.00
2022-11-17T19:42:51.626Z,51.00
2022-11-17T19:45:21.204Z,50.67
2022-11-17T19:47:50.690Z,51.00
2022-11-17T19:50:20.292Z,52.00
2022-11-17T19:52:50.491Z,53.00
2022-11-17T19:55:20.144Z,56.33
2022-11-17T19:57:49.274Z,56.00
2022-11-17T20:00:19.628Z,54.50
2022-11-17T20:02:48.289Z,55.67
2022-11-17T20:05:18.025Z,52.33
2022-11-17T20:07:46.771Z,54.00
2022-11-17T20:10:17.320Z,52.33
2022-11-17T20:12:46.917Z,53.33
2022-11-17T20:15:33.226Z,49.67
2022-11-17T20:18:03.728Z,49.00
2022-11-17T20:20:33.260Z,50.67
2022-11-17T20:23:02.733Z,51.00
2022-11-17T20:25:32.664Z,51.00
2022-11-17T20:28:02.367Z,61.33
2022-11-17T20:30:33.035Z,55.33
2022-11-17T20:33:02.649Z,81.67
2022-11-17T20:35:37.238Z,83.33
2022-11-17T20:38:10.506Z,90.50
2022-11-17T20:40:42.630Z,85.33
2022-11-17T20:43:13.121Z,94.25
2022-11-17T20:45:42.663Z,68.75
2022-11-17T20:48:10.436Z,62.00
2022-11-17T20:50:38.607Z,181.50
2022-11-17T20:53:08.475Z,78.33
2022-11-17T20:55:38.703Z,88.67
2022-11-17T20:58:08.345Z,76.00
2022-11-17T21:00:37.914Z,56.67
2022-11-17T21:03:08.471Z,88.75
2022-11-17T21:05:37.975Z,59.00
2022-11-17T21:08:06.965Z,57.00
2022-11-17T21:10:37.189Z,49.67
2022-11-17T21:13:05.865Z,62.67
2022-11-17T21:15:37.619Z,60.00
2022-11-17T21:18:25.360Z,63.00
2022-11-17T21:21:00.560Z,62.00
2022-11-17T21:23:30.590Z,59.33
2022-11-17T21:26:07.186Z,62.33
2022-11-17T21:28:39.966Z,59.00
2022-11-17T21:31:23.952Z,72.00
2022-11-17T21:34:03.571Z,61.75
2022-11-17T21:36:35.680Z,62.33
2022-11-17T21:39:05.688Z,56.33
2022-11-17T21:41:35.639Z,57.00
2022-11-17T21:44:05.882Z,59.67
2022-11-17T21:46:36.528Z,56.67
2022-11-17T21:49:06.313Z,76.33
2022-11-17T21:51:38.758Z,57.00
2022-11-17T21:54:10.438Z,56.00
2022-11-17T21:56:40.382Z,57.00
2022-11-17T21:59:14.478Z,56.67
2022-11-17T22:01:43.736Z,58.67
2022-11-17T22:04:13.355Z,56.00
2022-11-17T22:06:42.366Z,56.00
2022-11-17T22:09:12.402Z,55.33
2022-11-17T22:11:41.186Z,57.00
2022-11-17T22:14:18.369Z,57.67
2022-11-17T22:16:52.160Z,59.33
2022-11-17T22:19:27.479Z,66.25
2022-11-17T22:21:56.481Z,61.33
2022-11-17T22:24:25.242Z,56.33
2022-11-17T22:26:54.136Z,54.00
2022-11-17T22:29:23.728Z,55.67
2022-11-17T22:31:52.376Z,55.00
2022-11-17T22:34:21.908Z,51.67
2022-11-17T22:36:50.605Z,56.33
2022-11-17T22:39:19.670Z,55.67
2022-11-17T22:41:48.575Z,54.00
2022-11-17T22:44:18.282Z,52.33
2022-11-17T22:46:46.966Z,53.00
2022-11-17T22:49:16.648Z,55.33
2022-11-17T22:52:03.436Z,55.00
2022-11-17T22:54:32.564Z,54.33
2022-11-17T22:57:02.685Z,52.00
2022-11-17T22:59:31.765Z,53.00
2022-11-17T23:02:01.359Z,50.67
2022-11-17T23:04:31.182Z,50.33
2022-11-17T23:07:00.748Z,53.33
2022-11-17T23:09:30.552Z,47.67
2022-11-17T23:12:00.072Z,50.33
2022-11-17T23:14:29.626Z,53.00
2022-11-17T23:16:59.138Z,51.33
2022-11-17T23:19:28.598Z,45.67
2022-11-17T23:21:58.049Z,43.67
2022-11-17T23:24:27.526Z,39.67
2022-11-17T23:26:56.955Z,44.67
2022-11-17T23:29:26.416Z,42.67
2022-11-17T23:31:55.930Z,47.00
2022-11-17T23:34:25.502Z,40.67
2022-11-17T23:36:59.484Z,41.67
2022-11-17T23:39:32.023Z,42.00
2022-11-17T23:42:01.532Z,36.33
2022-11-17T23:44:30.432Z,40.33
2022-11-17T23:47:00.017Z,36.00
2022-11-17T23:49:29.919Z,35.00
2022-11-17T23:51:58.515Z,29.00
2022-11-17T23:54:27.171Z,34.33
2022-11-17T23:56:57.580Z,35.33
2022-11-17T23:59:26.253Z,20.00
